Crossville, Alabama
Current Conditions -  °F | °C
As of 12:35 AM on Saturday 20 Dec 2014 (Local Time) from K8A0 Reporting Station
Overcast Overcast  
Wind Chill: 34°   Ceiling: 5500
Heat Index: 37°   Visibility: 10mi
Dew Point: 37°   Wind: 5mph
Humidity: 100%   Direction: 20°NNE
Pressure: 30.14"   Gusts: NA
Location:  34.29°N, 85.99°W
Report Text: K8A0 200635Z AUTO 02004KT 10SM OVC055 03/03 A3014 RMK AO2
Loading
Personal Weather Stations






























Interactive Weather Map New forecast layout! Learn more

10-Day Weather Forecast

Advertisements
Track Severe Weather on mobile